sensor_id;sensor_type;location;lat;lon;timestamp;P1;durP1;ratioP1;P2;durP2;ratioP2
3085;SDS011;52812;48.960;9.108;2023-12-20T00:01:47;23.93;;;14.10;;
3085;SDS011;52812;48.960;9.108;2023-12-20T00:04:13;29.80;;;17.00;;
3085;SDS011;52812;48.960;9.108;2023-12-20T00:06:38;45.53;;;21.13;;
3085;SDS011;52812;48.960;9.108;2023-12-20T00:09:04;31.23;;;15.40;;
3085;SDS011;52812;48.960;9.108;2023-12-20T00:11:29;27.57;;;15.83;;
3085;SDS011;52812;48.960;9.108;2023-12-20T00:13:55;22.33;;;14.27;;
3085;SDS011;52812;48.960;9.108;2023-12-20T00:16:21;20.80;;;13.63;;
3085;SDS011;52812;48.960;9.108;2023-12-20T00:18:46;22.80;;;13.23;;
3085;SDS011;52812;48.960;9.108;2023-12-20T00:21:12;24.73;;;14.83;;
3085;SDS011;52812;48.960;9.108;2023-12-20T00:23:37;20.20;;;13.47;;
3085;SDS011;52812;48.960;9.108;2023-12-20T00:26:03;24.23;;;15.53;;
3085;SDS011;52812;48.960;9.108;2023-12-20T00:28:29;23.00;;;16.07;;
3085;SDS011;52812;48.960;9.108;2023-12-20T00:30:55;26.17;;;16.50;;
3085;SDS011;52812;48.960;9.108;2023-12-20T00:33:20;25.10;;;15.23;;
3085;SDS011;52812;48.960;9.108;2023-12-20T00:35:46;22.57;;;13.77;;
3085;SDS011;52812;48.960;9.108;2023-12-20T00:38:11;21.77;;;14.40;;
3085;SDS011;52812;48.960;9.108;2023-12-20T00:40:37;20.13;;;13.80;;
3085;SDS011;52812;48.960;9.108;2023-12-20T00:43:03;22.37;;;14.40;;
3085;SDS011;52812;48.960;9.108;2023-12-20T00:45:29;29.23;;;15.10;;
3085;SDS011;52812;48.960;9.108;2023-12-20T00:47:54;24.10;;;14.93;;
3085;SDS011;52812;48.960;9.108;2023-12-20T00:50:20;26.10;;;15.10;;
3085;SDS011;52812;48.960;9.108;2023-12-20T00:52:46;27.07;;;15.57;;
3085;SDS011;52812;48.960;9.108;2023-12-20T00:55:12;25.97;;;14.90;;
3085;SDS011;52812;48.960;9.108;2023-12-20T00:57:38;20.53;;;14.03;;
3085;SDS011;52812;48.960;9.108;2023-12-20T01:00:05;21.33;;;13.43;;
3085;SDS011;52812;48.960;9.108;2023-12-20T01:02:31;23.03;;;14.00;;
3085;SDS011;52812;48.960;9.108;2023-12-20T01:04:56;20.83;;;13.90;;
3085;SDS011;52812;48.960;9.108;2023-12-20T01:07:22;21.27;;;14.30;;
3085;SDS011;52812;48.960;9.108;2023-12-20T01:09:47;22.30;;;14.20;;
3085;SDS011;52812;48.960;9.108;2023-12-20T01:12:13;21.63;;;14.70;;
3085;SDS011;52812;48.960;9.108;2023-12-20T01:14:39;24.37;;;14.20;;
3085;SDS011;52812;48.960;9.108;2023-12-20T01:17:04;21.40;;;13.80;;
3085;SDS011;52812;48.960;9.108;2023-12-20T01:19:30;21.13;;;14.17;;
3085;SDS011;52812;48.960;9.108;2023-12-20T01:21:56;22.70;;;14.07;;
3085;SDS011;52812;48.960;9.108;2023-12-20T01:24:21;23.47;;;14.40;;
3085;SDS011;52812;48.960;9.108;2023-12-20T01:26:47;24.77;;;15.40;;
3085;SDS011;52812;48.960;9.108;2023-12-20T01:29:13;22.67;;;14.57;;
3085;SDS011;52812;48.960;9.108;2023-12-20T01:31:39;22.57;;;14.63;;
3085;SDS011;52812;48.960;9.108;2023-12-20T01:34:05;21.80;;;14.97;;
3085;SDS011;52812;48.960;9.108;2023-12-20T01:36:31;21.77;;;14.90;;
3085;SDS011;52812;48.960;9.108;2023-12-20T01:38:57;22.33;;;13.87;;
3085;SDS011;52812;48.960;9.108;2023-12-20T01:41:23;21.90;;;14.90;;
3085;SDS011;52812;48.960;9.108;2023-12-20T01:43:48;23.30;;;14.60;;
3085;SDS011;52812;48.960;9.108;2023-12-20T01:46:14;20.10;;;13.13;;
3085;SDS011;52812;48.960;9.108;2023-12-20T01:48:40;12.73;;;8.60;;
3085;SDS011;52812;48.960;9.108;2023-12-20T01:51:06;12.33;;;7.30;;
3085;SDS011;52812;48.960;9.108;2023-12-20T01:53:32;9.90;;;7.07;;
3085;SDS011;52812;48.960;9.108;2023-12-20T01:55:58;9.17;;;5.73;;
3085;SDS011;52812;48.960;9.108;2023-12-20T01:58:24;6.97;;;4.77;;
3085;SDS011;52812;48.960;9.108;2023-12-20T02:00:50;7.40;;;5.00;;
3085;SDS011;52812;48.960;9.108;2023-12-20T02:03:16;7.23;;;5.23;;
3085;SDS011;52812;48.960;9.108;2023-12-20T02:05:43;9.27;;;5.60;;
3085;SDS011;52812;48.960;9.108;2023-12-20T02:08:10;5.83;;;4.10;;
3085;SDS011;52812;48.960;9.108;2023-12-20T02:10:36;4.30;;;3.37;;
3085;SDS011;52812;48.960;9.108;2023-12-20T02:13:02;5.57;;;3.50;;
3085;SDS011;52812;48.960;9.108;2023-12-20T02:15:29;3.60;;;3.10;;
3085;SDS011;52812;48.960;9.108;2023-12-20T02:17:54;4.77;;;3.23;;
3085;SDS011;52812;48.960;9.108;2023-12-20T02:20:20;3.23;;;2.30;;
3085;SDS011;52812;48.960;9.108;2023-12-20T02:22:46;3.87;;;2.70;;
3085;SDS011;52812;48.960;9.108;2023-12-20T02:25:12;3.93;;;2.50;;
3085;SDS011;52812;48.960;9.108;2023-12-20T02:27:38;2.80;;;2.23;;
3085;SDS011;52812;48.960;9.108;2023-12-20T02:30:04;2.40;;;1.80;;
3085;SDS011;52812;48.960;9.108;2023-12-20T02:32:31;2.03;;;1.80;;
3085;SDS011;52812;48.960;9.108;2023-12-20T02:34:57;2.67;;;2.40;;
3085;SDS011;52812;48.960;9.108;2023-12-20T02:37:23;2.13;;;1.93;;
3085;SDS011;52812;48.960;9.108;2023-12-20T02:39:49;2.53;;;1.90;;
3085;SDS011;52812;48.960;9.108;2023-12-20T02:42:14;1.80;;;1.70;;
3085;SDS011;52812;48.960;9.108;2023-12-20T02:44:40;2.07;;;1.53;;
3085;SDS011;52812;48.960;9.108;2023-12-20T02:47:06;2.00;;;1.53;;
3085;SDS011;52812;48.960;9.108;2023-12-20T02:49:31;2.10;;;1.80;;
3085;SDS011;52812;48.960;9.108;2023-12-20T02:51:57;1.73;;;1.63;;
3085;SDS011;52812;48.960;9.108;2023-12-20T02:54:23;1.97;;;1.57;;
3085;SDS011;52812;48.960;9.108;2023-12-20T02:56:48;2.00;;;1.60;;
3085;SDS011;52812;48.960;9.108;2023-12-20T02:59:14;1.97;;;1.77;;
3085;SDS011;52812;48.960;9.108;2023-12-20T03:01:44;1.50;;;1.40;;
3085;SDS011;52812;48.960;9.108;2023-12-20T03:04:10;1.97;;;1.50;;
3085;SDS011;52812;48.960;9.108;2023-12-20T03:06:36;1.70;;;1.60;;
3085;SDS011;52812;48.960;9.108;2023-12-20T03:09:02;1.70;;;1.60;;
3085;SDS011;52812;48.960;9.108;2023-12-20T03:11:28;1.87;;;1.77;;
3085;SDS011;52812;48.960;9.108;2023-12-20T03:13:54;1.83;;;1.47;;
3085;SDS011;52812;48.960;9.108;2023-12-20T03:16:23;1.60;;;1.50;;
3085;SDS011;52812;48.960;9.108;2023-12-20T03:18:49;1.80;;;1.70;;
3085;SDS011;52812;48.960;9.108;2023-12-20T03:21:14;3.80;;;1.70;;
3085;SDS011;52812;48.960;9.108;2023-12-20T03:23:40;2.00;;;1.60;;
3085;SDS011;52812;48.960;9.108;2023-12-20T03:26:07;1.40;;;1.30;;
3085;SDS011;52812;48.960;9.108;2023-12-20T03:28:33;1.83;;;1.33;;
3085;SDS011;52812;48.960;9.108;2023-12-20T03:30:59;1.60;;;1.40;;
3085;SDS011;52812;48.960;9.108;2023-12-20T03:33:25;2.23;;;1.50;;
3085;SDS011;52812;48.960;9.108;2023-12-20T03:35:51;1.60;;;1.37;;
3085;SDS011;52812;48.960;9.108;2023-12-20T03:38:16;1.40;;;1.27;;
3085;SDS011;52812;48.960;9.108;2023-12-20T03:40:42;1.67;;;1.40;;
3085;SDS011;52812;48.960;9.108;2023-12-20T03:43:08;1.60;;;1.30;;
3085;SDS011;52812;48.960;9.108;2023-12-20T03:45:33;1.40;;;1.30;;
3085;SDS011;52812;48.960;9.108;2023-12-20T03:47:59;1.30;;;1.20;;
3085;SDS011;52812;48.960;9.108;2023-12-20T03:50:25;1.33;;;1.23;;
3085;SDS011;52812;48.960;9.108;2023-12-20T03:52:51;1.83;;;1.43;;
3085;SDS011;52812;48.960;9.108;2023-12-20T03:55:17;1.50;;;1.40;;
3085;SDS011;52812;48.960;9.108;2023-12-20T03:57:43;1.40;;;1.30;;
3085;SDS011;52812;48.960;9.108;2023-12-20T04:00:09;1.47;;;1.37;;
3085;SDS011;52812;48.960;9.108;2023-12-20T04:02:39;1.30;;;1.20;;
3085;SDS011;52812;48.960;9.108;2023-12-20T04:05:05;1.67;;;1.40;;
3085;SDS011;52812;48.960;9.108;2023-12-20T04:07:31;1.87;;;1.60;;
3085;SDS011;52812;48.960;9.108;2023-12-20T04:09:57;1.73;;;1.20;;
3085;SDS011;52812;48.960;9.108;2023-12-20T04:12:23;1.73;;;1.63;;
3085;SDS011;52812;48.960;9.108;2023-12-20T04:14:49;1.90;;;1.80;;
3085;SDS011;52812;48.960;9.108;2023-12-20T04:17:15;1.57;;;1.47;;
3085;SDS011;52812;48.960;9.108;2023-12-20T04:19:41;1.80;;;1.70;;
3085;SDS011;52812;48.960;9.108;2023-12-20T04:22:07;1.50;;;1.40;;
3085;SDS011;52812;48.960;9.108;2023-12-20T04:24:33;1.80;;;1.70;;
3085;SDS011;52812;48.960;9.108;2023-12-20T04:26:59;1.67;;;1.57;;
3085;SDS011;52812;48.960;9.108;2023-12-20T04:29:24;1.77;;;1.67;;
3085;SDS011;52812;48.960;9.108;2023-12-20T04:31:50;1.80;;;1.40;;
3085;SDS011;52812;48.960;9.108;2023-12-20T04:34:19;1.60;;;1.40;;
3085;SDS011;52812;48.960;9.108;2023-12-20T04:36:44;1.60;;;1.50;;
3085;SDS011;52812;48.960;9.108;2023-12-20T04:39:11;1.60;;;1.50;;
3085;SDS011;52812;48.960;9.108;2023-12-20T04:41:37;1.40;;;1.30;;
3085;SDS011;52812;48.960;9.108;2023-12-20T04:44:03;1.50;;;1.40;;
3085;SDS011;52812;48.960;9.108;2023-12-20T04:46:29;1.87;;;1.60;;
3085;SDS011;52812;48.960;9.108;2023-12-20T04:48:54;1.80;;;1.50;;
3085;SDS011;52812;48.960;9.108;2023-12-20T04:51:20;1.50;;;1.40;;
3085;SDS011;52812;48.960;9.108;2023-12-20T04:53:46;1.50;;;1.40;;
3085;SDS011;52812;48.960;9.108;2023-12-20T04:56:12;2.03;;;1.60;;
3085;SDS011;52812;48.960;9.108;2023-12-20T04:58:37;1.53;;;1.43;;
3085;SDS011;52812;48.960;9.108;2023-12-20T05:01:03;2.07;;;1.60;;
3085;SDS011;52812;48.960;9.108;2023-12-20T05:03:31;2.20;;;2.00;;
3085;SDS011;52812;48.960;9.108;2023-12-20T05:05:56;2.03;;;1.87;;
3085;SDS011;52812;48.960;9.108;2023-12-20T05:08:23;2.73;;;1.97;;
3085;SDS011;52812;48.960;9.108;2023-12-20T05:10:48;2.10;;;1.90;;
3085;SDS011;52812;48.960;9.108;2023-12-20T05:13:14;2.80;;;2.00;;
3085;SDS011;52812;48.960;9.108;2023-12-20T05:15:40;3.00;;;2.20;;
3085;SDS011;52812;48.960;9.108;2023-12-20T05:18:06;4.83;;;2.40;;
3085;SDS011;52812;48.960;9.108;2023-12-20T05:20:31;2.67;;;2.00;;
3085;SDS011;52812;48.960;9.108;2023-12-20T05:22:57;2.77;;;2.37;;
3085;SDS011;52812;48.960;9.108;2023-12-20T05:25:23;4.20;;;3.00;;
3085;SDS011;52812;48.960;9.108;2023-12-20T05:27:48;3.33;;;2.80;;
3085;SDS011;52812;48.960;9.108;2023-12-20T05:30:15;4.63;;;3.43;;
3085;SDS011;52812;48.960;9.108;2023-12-20T05:32:41;5.47;;;3.13;;
3085;SDS011;52812;48.960;9.108;2023-12-20T05:35:07;4.73;;;3.57;;
3085;SDS011;52812;48.960;9.108;2023-12-20T05:37:32;4.40;;;3.20;;
3085;SDS011;52812;48.960;9.108;2023-12-20T05:39:58;3.60;;;2.63;;
3085;SDS011;52812;48.960;9.108;2023-12-20T05:42:23;4.10;;;3.00;;
3085;SDS011;52812;48.960;9.108;2023-12-20T05:44:49;2.83;;;2.60;;
3085;SDS011;52812;48.960;9.108;2023-12-20T05:47:15;3.30;;;2.57;;
3085;SDS011;52812;48.960;9.108;2023-12-20T05:49:41;3.47;;;2.70;;
3085;SDS011;52812;48.960;9.108;2023-12-20T05:52:07;3.20;;;2.90;;
3085;SDS011;52812;48.960;9.108;2023-12-20T05:54:32;4.37;;;2.83;;
3085;SDS011;52812;48.960;9.108;2023-12-20T05:56:59;3.20;;;2.80;;
3085;SDS011;52812;48.960;9.108;2023-12-20T05:59:25;3.30;;;3.00;;
3085;SDS011;52812;48.960;9.108;2023-12-20T06:01:51;3.40;;;2.77;;
3085;SDS011;52812;48.960;9.108;2023-12-20T06:04:16;3.87;;;2.80;;
3085;SDS011;52812;48.960;9.108;2023-12-20T06:06:42;4.70;;;3.17;;
3085;SDS011;52812;48.960;9.108;2023-12-20T06:09:08;3.37;;;2.90;;
3085;SDS011;52812;48.960;9.108;2023-12-20T06:11:34;3.77;;;2.80;;
3085;SDS011;52812;48.960;9.108;2023-12-20T06:14:00;3.00;;;2.70;;
3085;SDS011;52812;48.960;9.108;2023-12-20T06:16:25;8.10;;;3.83;;
3085;SDS011;52812;48.960;9.108;2023-12-20T06:18:51;3.90;;;3.50;;
3085;SDS011;52812;48.960;9.108;2023-12-20T06:21:17;3.63;;;3.20;;
3085;SDS011;52812;48.960;9.108;2023-12-20T06:23:42;4.13;;;3.47;;
3085;SDS011;52812;48.960;9.108;2023-12-20T06:26:08;8.40;;;4.03;;
3085;SDS011;52812;48.960;9.108;2023-12-20T06:28:34;4.53;;;3.40;;
3085;SDS011;52812;48.960;9.108;2023-12-20T06:30:59;3.93;;;3.37;;
3085;SDS011;52812;48.960;9.108;2023-12-20T06:33:25;4.80;;;3.90;;
3085;SDS011;52812;48.960;9.108;2023-12-20T06:35:51;4.60;;;3.60;;
3085;SDS011;52812;48.960;9.108;2023-12-20T06:38:17;5.80;;;4.23;;
3085;SDS011;52812;48.960;9.108;2023-12-20T06:40:44;6.40;;;4.50;;
3085;SDS011;52812;48.960;9.108;2023-12-20T06:43:10;6.27;;;4.47;;
3085;SDS011;52812;48.960;9.108;2023-12-20T06:45:36;8.43;;;5.20;;
3085;SDS011;52812;48.960;9.108;2023-12-20T06:48:02;5.93;;;4.10;;
3085;SDS011;52812;48.960;9.108;2023-12-20T06:50:28;6.63;;;5.30;;
3085;SDS011;52812;48.960;9.108;2023-12-20T06:52:54;7.07;;;5.50;;
3085;SDS011;52812;48.960;9.108;2023-12-20T06:55:19;5.10;;;4.60;;
3085;SDS011;52812;48.960;9.108;2023-12-20T06:57:45;7.93;;;4.90;;
3085;SDS011;52812;48.960;9.108;2023-12-20T07:00:11;7.67;;;5.43;;
3085;SDS011;52812;48.960;9.108;2023-12-20T07:02:37;6.63;;;4.93;;
3085;SDS011;52812;48.960;9.108;2023-12-20T07:05:03;5.63;;;4.80;;
3085;SDS011;52812;48.960;9.108;2023-12-20T07:07:29;6.13;;;5.03;;
3085;SDS011;52812;48.960;9.108;2023-12-20T07:09:55;6.53;;;5.23;;
3085;SDS011;52812;48.960;9.108;2023-12-20T07:12:21;7.60;;;5.40;;
3085;SDS011;52812;48.960;9.108;2023-12-20T07:14:46;6.77;;;5.30;;
3085;SDS011;52812;48.960;9.108;2023-12-20T07:17:12;6.70;;;5.30;;
3085;SDS011;52812;48.960;9.108;2023-12-20T07:19:40;7.17;;;5.87;;
3085;SDS011;52812;48.960;9.108;2023-12-20T07:22:06;7.63;;;6.07;;
3085;SDS011;52812;48.960;9.108;2023-12-20T07:24:32;7.50;;;5.93;;
3085;SDS011;52812;48.960;9.108;2023-12-20T07:26:59;10.10;;;6.80;;
3085;SDS011;52812;48.960;9.108;2023-12-20T07:29:25;8.00;;;6.30;;
3085;SDS011;52812;48.960;9.108;2023-12-20T07:31:52;9.63;;;6.77;;
3085;SDS011;52812;48.960;9.108;2023-12-20T07:34:19;12.37;;;8.00;;
3085;SDS011;52812;48.960;9.108;2023-12-20T07:36:45;8.30;;;6.70;;
3085;SDS011;52812;48.960;9.108;2023-12-20T07:39:12;9.07;;;6.20;;
3085;SDS011;52812;48.960;9.108;2023-12-20T07:41:38;8.20;;;6.20;;
3085;SDS011;52812;48.960;9.108;2023-12-20T07:44:04;7.57;;;5.80;;
3085;SDS011;52812;48.960;9.108;2023-12-20T07:46:29;8.30;;;6.20;;
3085;SDS011;52812;48.960;9.108;2023-12-20T07:48:55;6.93;;;5.53;;
3085;SDS011;52812;48.960;9.108;2023-12-20T07:51:21;7.73;;;5.80;;
3085;SDS011;52812;48.960;9.108;2023-12-20T07:53:47;9.37;;;6.37;;
3085;SDS011;52812;48.960;9.108;2023-12-20T07:56:16;7.87;;;5.63;;
3085;SDS011;52812;48.960;9.108;2023-12-20T07:58:42;10.20;;;6.47;;
3085;SDS011;52812;48.960;9.108;2023-12-20T08:01:09;8.63;;;5.97;;
3085;SDS011;52812;48.960;9.108;2023-12-20T08:03:35;8.77;;;6.07;;
3085;SDS011;52812;48.960;9.108;2023-12-20T08:06:03;7.93;;;5.77;;
3085;SDS011;52812;48.960;9.108;2023-12-20T08:08:29;9.17;;;6.13;;
3085;SDS011;52812;48.960;9.108;2023-12-20T08:10:55;10.57;;;5.80;;
3085;SDS011;52812;48.960;9.108;2023-12-20T08:13:22;7.17;;;5.80;;
3085;SDS011;52812;48.960;9.108;2023-12-20T08:15:51;8.83;;;6.27;;
3085;SDS011;52812;48.960;9.108;2023-12-20T08:18:16;8.80;;;5.33;;
3085;SDS011;52812;48.960;9.108;2023-12-20T08:20:42;8.33;;;5.83;;
3085;SDS011;52812;48.960;9.108;2023-12-20T08:23:08;7.47;;;5.70;;
3085;SDS011;52812;48.960;9.108;2023-12-20T08:25:33;7.40;;;5.17;;
3085;SDS011;52812;48.960;9.108;2023-12-20T08:27:59;6.00;;;4.90;;
3085;SDS011;52812;48.960;9.108;2023-12-20T08:30:25;6.93;;;4.23;;
3085;SDS011;52812;48.960;9.108;2023-12-20T08:32:51;4.90;;;3.80;;
3085;SDS011;52812;48.960;9.108;2023-12-20T08:35:17;6.57;;;3.63;;
3085;SDS011;52812;48.960;9.108;2023-12-20T08:37:43;5.20;;;3.73;;
3085;SDS011;52812;48.960;9.108;2023-12-20T08:40:09;5.63;;;4.20;;
3085;SDS011;52812;48.960;9.108;2023-12-20T08:42:35;6.83;;;4.20;;
3085;SDS011;52812;48.960;9.108;2023-12-20T08:45:01;5.87;;;4.43;;
3085;SDS011;52812;48.960;9.108;2023-12-20T08:47:29;9.43;;;5.27;;
3085;SDS011;52812;48.960;9.108;2023-12-20T08:49:54;6.07;;;4.70;;
3085;SDS011;52812;48.960;9.108;2023-12-20T08:52:22;6.20;;;5.10;;
3085;SDS011;52812;48.960;9.108;2023-12-20T08:54:49;6.30;;;4.40;;
3085;SDS011;52812;48.960;9.108;2023-12-20T08:57:17;6.10;;;4.53;;
3085;SDS011;52812;48.960;9.108;2023-12-20T08:59:45;16.50;;;5.50;;
3085;SDS011;52812;48.960;9.108;2023-12-20T09:02:11;7.90;;;5.37;;
3085;SDS011;52812;48.960;9.108;2023-12-20T09:04:37;7.43;;;5.33;;
3085;SDS011;52812;48.960;9.108;2023-12-20T09:07:03;8.10;;;5.23;;
3085;SDS011;52812;48.960;9.108;2023-12-20T09:09:29;7.90;;;4.90;;
3085;SDS011;52812;48.960;9.108;2023-12-20T09:11:57;7.00;;;5.20;;
3085;SDS011;52812;48.960;9.108;2023-12-20T09:14:23;6.53;;;5.23;;
3085;SDS011;52812;48.960;9.108;2023-12-20T09:16:48;8.17;;;5.30;;
3085;SDS011;52812;48.960;9.108;2023-12-20T09:19:16;6.07;;;4.67;;
3085;SDS011;52812;48.960;9.108;2023-12-20T09:21:42;6.73;;;4.70;;
3085;SDS011;52812;48.960;9.108;2023-12-20T09:24:08;6.20;;;4.70;;
3085;SDS011;52812;48.960;9.108;2023-12-20T09:26:37;7.67;;;4.87;;
3085;SDS011;52812;48.960;9.108;2023-12-20T09:29:04;5.57;;;4.33;;
3085;SDS011;52812;48.960;9.108;2023-12-20T09:31:32;5.90;;;4.60;;
3085;SDS011;52812;48.960;9.108;2023-12-20T09:33:58;6.83;;;4.53;;
3085;SDS011;52812;48.960;9.108;2023-12-20T09:36:23;7.90;;;4.37;;
3085;SDS011;52812;48.960;9.108;2023-12-20T09:38:49;5.30;;;4.10;;
3085;SDS011;52812;48.960;9.108;2023-12-20T09:41:16;6.20;;;4.03;;
3085;SDS011;52812;48.960;9.108;2023-12-20T09:43:42;6.17;;;4.07;;
3085;SDS011;52812;48.960;9.108;2023-12-20T09:46:10;7.13;;;3.37;;
3085;SDS011;52812;48.960;9.108;2023-12-20T09:48:39;5.10;;;2.90;;
3085;SDS011;52812;48.960;9.108;2023-12-20T09:51:06;4.00;;;3.20;;
3085;SDS011;52812;48.960;9.108;2023-12-20T09:53:35;5.00;;;3.50;;
3085;SDS011;52812;48.960;9.108;2023-12-20T09:56:03;4.30;;;2.90;;
3085;SDS011;52812;48.960;9.108;2023-12-20T09:58:30;5.40;;;3.00;;
3085;SDS011;52812;48.960;9.108;2023-12-20T10:00:56;9.13;;;3.80;;
3085;SDS011;52812;48.960;9.108;2023-12-20T10:03:23;5.80;;;2.97;;
3085;SDS011;52812;48.960;9.108;2023-12-20T10:05:52;4.17;;;2.47;;
3085;SDS011;52812;48.960;9.108;2023-12-20T10:08:21;3.67;;;2.63;;
3085;SDS011;52812;48.960;9.108;2023-12-20T10:10:52;4.63;;;3.10;;
3085;SDS011;52812;48.960;9.108;2023-12-20T10:13:19;2.97;;;2.33;;
3085;SDS011;52812;48.960;9.108;2023-12-20T10:15:45;3.93;;;2.73;;
3085;SDS011;52812;48.960;9.108;2023-12-20T10:18:11;2.80;;;2.53;;
3085;SDS011;52812;48.960;9.108;2023-12-20T10:20:38;4.40;;;2.57;;
3085;SDS011;52812;48.960;9.108;2023-12-20T10:23:05;5.10;;;2.80;;
3085;SDS011;52812;48.960;9.108;2023-12-20T10:25:31;3.60;;;2.20;;
3085;SDS011;52812;48.960;9.108;2023-12-20T10:28:11;4.40;;;2.73;;
3085;SDS011;52812;48.960;9.108;2023-12-20T10:30:38;7.07;;;2.57;;
3085;SDS011;52812;48.960;9.108;2023-12-20T10:33:08;4.20;;;2.60;;
3085;SDS011;52812;48.960;9.108;2023-12-20T10:35:38;3.93;;;2.30;;
3085;SDS011;52812;48.960;9.108;2023-12-20T10:38:04;7.10;;;2.57;;
3085;SDS011;52812;48.960;9.108;2023-12-20T10:40:31;6.17;;;2.80;;
3085;SDS011;52812;48.960;9.108;2023-12-20T10:43:01;4.43;;;2.80;;
3085;SDS011;52812;48.960;9.108;2023-12-20T10:45:28;13.60;;;2.90;;
3085;SDS011;52812;48.960;9.108;2023-12-20T10:47:53;3.83;;;2.50;;
3085;SDS011;52812;48.960;9.108;2023-12-20T10:50:20;7.17;;;2.53;;
3085;SDS011;52812;48.960;9.108;2023-12-20T10:52:46;4.30;;;2.30;;
3085;SDS011;52812;48.960;9.108;2023-12-20T10:55:12;5.73;;;2.57;;
3085;SDS011;52812;48.960;9.108;2023-12-20T10:57:38;3.00;;;2.33;;
3085;SDS011;52812;48.960;9.108;2023-12-20T11:00:06;4.30;;;2.70;;
3085;SDS011;52812;48.960;9.108;2023-12-20T11:02:39;7.67;;;2.80;;
3085;SDS011;52812;48.960;9.108;2023-12-20T11:16:23;3.93;;;2.30;;
3085;SDS011;52812;48.960;9.108;2023-12-20T11:18:50;4.70;;;2.27;;
3085;SDS011;52812;48.960;9.108;2023-12-20T11:21:16;6.57;;;2.37;;
3085;SDS011;52812;48.960;9.108;2023-12-20T11:23:42;7.13;;;2.50;;
3085;SDS011;52812;48.960;9.108;2023-12-20T11:26:07;3.70;;;2.90;;
3085;SDS011;52812;48.960;9.108;2023-12-20T11:28:33;4.50;;;2.50;;
3085;SDS011;52812;48.960;9.108;2023-12-20T11:31:00;5.47;;;2.87;;
3085;SDS011;52812;48.960;9.108;2023-12-20T11:33:30;4.33;;;2.50;;
3085;SDS011;52812;48.960;9.108;2023-12-20T11:36:00;3.53;;;2.40;;
3085;SDS011;52812;48.960;9.108;2023-12-20T11:38:27;5.30;;;2.70;;
3085;SDS011;52812;48.960;9.108;2023-12-20T11:41:01;5.93;;;2.70;;
3085;SDS011;52812;48.960;9.108;2023-12-20T11:43:32;3.80;;;2.70;;
3085;SDS011;52812;48.960;9.108;2023-12-20T11:46:04;6.27;;;2.80;;
3085;SDS011;52812;48.960;9.108;2023-12-20T11:48:31;4.83;;;3.10;;
3085;SDS011;52812;48.960;9.108;2023-12-20T11:50:57;5.77;;;3.40;;
3085;SDS011;52812;48.960;9.108;2023-12-20T11:53:23;5.47;;;3.10;;
3085;SDS011;52812;48.960;9.108;2023-12-20T11:55:49;8.03;;;3.00;;
3085;SDS011;52812;48.960;9.108;2023-12-20T11:58:15;5.13;;;2.70;;
3085;SDS011;52812;48.960;9.108;2023-12-20T12:00:41;6.60;;;2.97;;
3085;SDS011;52812;48.960;9.108;2023-12-20T12:03:14;7.30;;;3.03;;
3085;SDS011;52812;48.960;9.108;2023-12-20T12:05:40;5.10;;;2.73;;
3085;SDS011;52812;48.960;9.108;2023-12-20T12:08:06;4.87;;;3.33;;
3085;SDS011;52812;48.960;9.108;2023-12-20T12:10:32;4.90;;;3.03;;
3085;SDS011;52812;48.960;9.108;2023-12-20T12:12:59;5.57;;;2.67;;
3085;SDS011;52812;48.960;9.108;2023-12-20T12:15:26;5.67;;;2.83;;
3085;SDS011;52812;48.960;9.108;2023-12-20T12:17:55;4.03;;;2.87;;
3085;SDS011;52812;48.960;9.108;2023-12-20T12:20:21;7.00;;;2.90;;
3085;SDS011;52812;48.960;9.108;2023-12-20T12:22:58;5.43;;;2.97;;
3085;SDS011;52812;48.960;9.108;2023-12-20T12:25:24;9.90;;;2.93;;
3085;SDS011;52812;48.960;9.108;2023-12-20T12:27:50;5.53;;;2.60;;
3085;SDS011;52812;48.960;9.108;2023-12-20T12:30:16;4.73;;;3.00;;
3085;SDS011;52812;48.960;9.108;2023-12-20T12:32:43;7.53;;;3.50;;
3085;SDS011;52812;48.960;9.108;2023-12-20T12:35:09;6.40;;;2.70;;
3085;SDS011;52812;48.960;9.108;2023-12-20T12:37:37;8.40;;;3.00;;
3085;SDS011;52812;48.960;9.108;2023-12-20T12:40:07;4.03;;;2.40;;
3085;SDS011;52812;48.960;9.108;2023-12-20T12:42:36;5.20;;;2.30;;
3085;SDS011;52812;48.960;9.108;2023-12-20T12:45:03;7.40;;;2.57;;
3085;SDS011;52812;48.960;9.108;2023-12-20T12:47:29;3.63;;;2.77;;
3085;SDS011;52812;48.960;9.108;2023-12-20T12:49:55;4.90;;;2.80;;
3085;SDS011;52812;48.960;9.108;2023-12-20T12:52:21;4.53;;;2.63;;
3085;SDS011;52812;48.960;9.108;2023-12-20T12:54:50;5.47;;;2.40;;
3085;SDS011;52812;48.960;9.108;2023-12-20T12:57:16;3.27;;;2.53;;
3085;SDS011;52812;48.960;9.108;2023-12-20T12:59:42;3.50;;;2.63;;
3085;SDS011;52812;48.960;9.108;2023-12-20T13:02:10;6.60;;;2.47;;
3085;SDS011;52812;48.960;9.108;2023-12-20T13:04:36;4.63;;;2.60;;
3085;SDS011;52812;48.960;9.108;2023-12-20T13:07:02;4.27;;;2.70;;
3085;SDS011;52812;48.960;9.108;2023-12-20T13:09:28;7.37;;;2.40;;
3085;SDS011;52812;48.960;9.108;2023-12-20T13:11:53;5.40;;;2.30;;
3085;SDS011;52812;48.960;9.108;2023-12-20T13:14:19;6.53;;;2.60;;
3085;SDS011;52812;48.960;9.108;2023-12-20T13:16:45;3.40;;;2.53;;
3085;SDS011;52812;48.960;9.108;2023-12-20T13:19:10;4.57;;;2.60;;
3085;SDS011;52812;48.960;9.108;2023-12-20T13:21:36;6.50;;;2.80;;
3085;SDS011;52812;48.960;9.108;2023-12-20T13:24:02;4.47;;;2.40;;
3085;SDS011;52812;48.960;9.108;2023-12-20T13:26:28;3.70;;;2.57;;
3085;SDS011;52812;48.960;9.108;2023-12-20T13:28:57;2.60;;;2.30;;
3085;SDS011;52812;48.960;9.108;2023-12-20T13:31:22;5.30;;;2.23;;
3085;SDS011;52812;48.960;9.108;2023-12-20T13:33:48;2.87;;;2.27;;
3085;SDS011;52812;48.960;9.108;2023-12-20T13:36:13;5.90;;;2.60;;
3085;SDS011;52812;48.960;9.108;2023-12-20T13:38:39;7.23;;;2.50;;
3085;SDS011;52812;48.960;9.108;2023-12-20T13:41:05;5.40;;;2.50;;
3085;SDS011;52812;48.960;9.108;2023-12-20T13:43:31;8.40;;;3.30;;
3085;SDS011;52812;48.960;9.108;2023-12-20T13:45:58;5.03;;;2.80;;
3085;SDS011;52812;48.960;9.108;2023-12-20T13:48:24;5.63;;;2.60;;
3085;SDS011;52812;48.960;9.108;2023-12-20T13:50:49;5.40;;;2.80;;
3085;SDS011;52812;48.960;9.108;2023-12-20T13:53:15;5.93;;;3.10;;
3085;SDS011;52812;48.960;9.108;2023-12-20T13:55:41;6.07;;;2.93;;
3085;SDS011;52812;48.960;9.108;2023-12-20T13:58:07;6.87;;;2.80;;
3085;SDS011;52812;48.960;9.108;2023-12-20T14:00:33;4.83;;;2.80;;
3085;SDS011;52812;48.960;9.108;2023-12-20T14:02:59;3.70;;;2.73;;
3085;SDS011;52812;48.960;9.108;2023-12-20T14:05:24;5.53;;;2.83;;
3085;SDS011;52812;48.960;9.108;2023-12-20T14:07:51;6.67;;;3.40;;
3085;SDS011;52812;48.960;9.108;2023-12-20T14:10:17;6.13;;;2.90;;
3085;SDS011;52812;48.960;9.108;2023-12-20T14:12:43;3.90;;;2.70;;
3085;SDS011;52812;48.960;9.108;2023-12-20T14:15:09;4.43;;;3.00;;
3085;SDS011;52812;48.960;9.108;2023-12-20T14:17:38;3.63;;;2.77;;
3085;SDS011;52812;48.960;9.108;2023-12-20T14:20:07;6.40;;;2.87;;
3085;SDS011;52812;48.960;9.108;2023-12-20T14:22:34;7.40;;;2.60;;
3085;SDS011;52812;48.960;9.108;2023-12-20T14:25:00;6.30;;;3.17;;
3085;SDS011;52812;48.960;9.108;2023-12-20T14:27:26;5.13;;;2.97;;
3085;SDS011;52812;48.960;9.108;2023-12-20T14:29:56;6.10;;;2.63;;
3085;SDS011;52812;48.960;9.108;2023-12-20T14:32:21;8.60;;;3.30;;
3085;SDS011;52812;48.960;9.108;2023-12-20T14:34:47;5.20;;;2.70;;
3085;SDS011;52812;48.960;9.108;2023-12-20T14:37:13;5.17;;;3.00;;
3085;SDS011;52812;48.960;9.108;2023-12-20T14:39:39;9.23;;;2.60;;
3085;SDS011;52812;48.960;9.108;2023-12-20T14:42:06;6.27;;;2.87;;
3085;SDS011;52812;48.960;9.108;2023-12-20T14:44:36;3.20;;;2.90;;
3085;SDS011;52812;48.960;9.108;2023-12-20T14:47:02;10.00;;;2.90;;
3085;SDS011;52812;48.960;9.108;2023-12-20T14:49:27;5.53;;;3.70;;
3085;SDS011;52812;48.960;9.108;2023-12-20T14:51:53;6.20;;;2.93;;
3085;SDS011;52812;48.960;9.108;2023-12-20T14:54:19;8.77;;;3.40;;
3085;SDS011;52812;48.960;9.108;2023-12-20T14:56:46;5.30;;;2.83;;
3085;SDS011;52812;48.960;9.108;2023-12-20T14:59:12;6.13;;;3.13;;
3085;SDS011;52812;48.960;9.108;2023-12-20T15:01:37;7.47;;;2.80;;
3085;SDS011;52812;48.960;9.108;2023-12-20T15:04:05;5.80;;;2.60;;